Weather at G 500 Airport

Public forecast

Using degrees Celsius for public forecast. Weather courtesy of forecast.io.

Closest aviation weather report (METAR) to G 500 Airport

Closest report is Kunsan Air Base, 26.8 nm (49.6 km) WSW. Retrieved 2020/10/21 21:42 UTC (0 seconds ago):

RKJK 212142Z 11005KT 1/2SM R36/4500V5500FT FG CLR 10/10 A2995 RMK AO2A VIS 1/2V3 SLP146 FZRANO

Closest aviation forecast (TAF) to G 500 Airport

Forecast is more than 6 hours old.

Closest forecast is Kunsan Air Base, 26.8 nm (49.6 km) WSW. Retrieved 2020/10/21 15:06 UTC (6 hours ago):

TAF TAF RKJK 211500Z 2115/2221 VRB06KT 9999 BKN025 OVC045 QNH2996INS BECMG 2117/2118 VRB06KT 6000 BR BKN020 QNH2993INS BECMG 2121/2122 14006KT 8000 HZ BKN035 QNH2991INS BECMG 2202/2203 33010G15KT 8000 HZ SCT035 QNH2989INS BECMG 2205/2206 34015G25KT 9000 HZ SCT035 QNH2990INS BECMG 2211/2212 33012G18KT 9999 NSW SCT040 QNH2995INS TX18/2206Z TN13/2121Z